createdAt,value
2018-12-20T00:02:06.434Z,100416.00
2018-12-20T00:04:35.812Z,100405.00
2018-12-20T00:07:31.225Z,100286.00
2018-12-20T00:10:00.452Z,100412.00
2018-12-20T00:12:29.996Z,100402.00
2018-12-20T00:15:05.303Z,100400.00
2018-12-20T00:17:39.898Z,100399.00
2018-12-20T00:20:09.224Z,100396.00
2018-12-20T00:22:38.350Z,100400.00
2018-12-20T00:25:08.646Z,100389.00
2018-12-20T00:27:38.258Z,100414.00
2018-12-20T00:30:07.697Z,100389.00
2018-12-20T00:32:37.021Z,100392.00
2018-12-20T00:35:06.594Z,100390.00
2018-12-20T00:37:56.255Z,100390.00
2018-12-20T00:40:59.113Z,100400.00
2018-12-20T00:43:29.199Z,100391.00
2018-12-20T00:46:08.952Z,100389.00
2018-12-20T00:48:38.048Z,100391.00
2018-12-20T00:51:07.150Z,100388.00
2018-12-20T00:53:36.246Z,100390.00
2018-12-20T00:56:05.275Z,100389.00
2018-12-20T00:58:34.957Z,100385.00
2018-12-20T01:01:04.131Z,100392.00
2018-12-20T01:03:33.323Z,100393.00
2018-12-20T01:06:02.520Z,100393.00
2018-12-20T01:08:31.605Z,100386.00
2018-12-20T01:11:00.778Z,100397.00
2018-12-20T01:13:29.913Z,100401.00
2018-12-20T01:15:59.102Z,100402.00
2018-12-20T01:18:28.362Z,100407.00
2018-12-20T01:20:57.448Z,100401.00
2018-12-20T01:23:26.523Z,100405.00
2018-12-20T01:25:55.675Z,100401.00
2018-12-20T01:28:24.849Z,100401.00
2018-12-20T01:30:54.015Z,100412.00
2018-12-20T01:33:23.151Z,100411.00
2018-12-20T01:35:52.337Z,100413.00
2018-12-20T01:38:21.592Z,100415.00
2018-12-20T01:40:50.751Z,100412.00
2018-12-20T01:43:20.030Z,100417.00
2018-12-20T01:45:49.144Z,100413.00
2018-12-20T01:48:18.715Z,100417.00
2018-12-20T01:50:48.121Z,100420.00
2018-12-20T01:53:17.467Z,100416.00
2018-12-20T01:55:46.572Z,100411.00
2018-12-20T01:58:15.831Z,100411.00
2018-12-20T02:00:44.899Z,100409.00
2018-12-20T02:03:14.340Z,100412.00
2018-12-20T02:05:43.516Z,100405.00
2018-12-20T02:08:12.735Z,100411.00
2018-12-20T02:10:41.820Z,100418.00
2018-12-20T02:13:11.043Z,100415.00
2018-12-20T02:15:40.315Z,100417.00
2018-12-20T02:18:09.540Z,100410.00
2018-12-20T02:20:38.592Z,100416.00
2018-12-20T02:23:07.790Z,100420.00
2018-12-20T02:25:36.928Z,100417.00
2018-12-20T02:28:06.111Z,100422.00
2018-12-20T02:30:35.347Z,100411.00
2018-12-20T02:33:04.595Z,100409.00
2018-12-20T02:35:33.839Z,100407.00
2018-12-20T02:38:02.897Z,100415.00
2018-12-20T02:40:32.087Z,100400.00
2018-12-20T02:43:01.433Z,100401.00
2018-12-20T02:45:30.951Z,100393.00
2018-12-20T02:48:00.214Z,100397.00
2018-12-20T02:50:29.511Z,100395.00
2018-12-20T02:52:58.836Z,100399.00
2018-12-20T02:55:28.068Z,100392.00
2018-12-20T02:57:57.300Z,100386.00
2018-12-20T03:00:26.437Z,100394.00
2018-12-20T03:02:55.668Z,100389.00
2018-12-20T03:05:25.087Z,100385.00
2018-12-20T03:07:54.113Z,100371.00
2018-12-20T03:10:23.323Z,100378.00
2018-12-20T03:12:52.434Z,100378.00
2018-12-20T03:15:21.593Z,100378.00
2018-12-20T03:17:50.927Z,100376.00
2018-12-20T03:20:20.140Z,100362.00
2018-12-20T03:22:49.357Z,100374.00
2018-12-20T03:25:19.326Z,100371.00
2018-12-20T03:27:48.589Z,100363.00
2018-12-20T03:30:17.994Z,100374.00
2018-12-20T03:32:47.139Z,100358.00
2018-12-20T03:35:16.195Z,100366.00
2018-12-20T03:37:45.655Z,100371.00
2018-12-20T03:40:14.714Z,100364.00
2018-12-20T03:42:43.821Z,100363.00
2018-12-20T03:45:13.289Z,100370.00
2018-12-20T03:47:43.213Z,100355.00
2018-12-20T03:50:12.734Z,100370.00
2018-12-20T03:52:41.998Z,100370.00
2018-12-20T03:55:11.229Z,100375.00
2018-12-20T03:57:40.678Z,100381.00
2018-12-20T04:00:09.992Z,100371.00
2018-12-20T04:02:39.095Z,100378.00
2018-12-20T04:05:08.367Z,100383.00
2018-12-20T04:07:37.556Z,100377.00
2018-12-20T04:10:07.072Z,100383.00
2018-12-20T04:12:36.193Z,100387.00
2018-12-20T04:15:05.692Z,100379.00
2018-12-20T04:17:34.793Z,100386.00
2018-12-20T04:20:04.092Z,100384.00
2018-12-20T04:22:33.442Z,100384.00
2018-12-20T04:25:03.448Z,100379.00
2018-12-20T04:27:32.674Z,100376.00
2018-12-20T04:30:02.173Z,100374.00
2018-12-20T04:32:31.270Z,100370.00
2018-12-20T04:35:00.487Z,100370.00
2018-12-20T04:37:29.647Z,100368.00
2018-12-20T04:39:58.817Z,100375.00
2018-12-20T04:42:27.928Z,100368.00
2018-12-20T04:44:57.006Z,100371.00
2018-12-20T04:47:25.997Z,100369.00
2018-12-20T04:49:55.394Z,100367.00
2018-12-20T04:52:24.721Z,100368.00
2018-12-20T04:54:53.831Z,100359.00
2018-12-20T04:57:22.913Z,100358.00
2018-12-20T04:59:52.065Z,100367.00
2018-12-20T05:02:21.410Z,100369.00
2018-12-20T05:04:50.635Z,100364.00
2018-12-20T05:07:24.453Z,100364.00
2018-12-20T05:09:53.702Z,100352.00
2018-12-20T05:12:23.080Z,100353.00
2018-12-20T05:14:52.307Z,100360.00
2018-12-20T05:17:22.225Z,100354.00
2018-12-20T05:19:53.054Z,100364.00
2018-12-20T05:22:22.227Z,100367.00
2018-12-20T05:24:52.688Z,100355.00
2018-12-20T05:27:21.760Z,100355.00
2018-12-20T05:29:50.785Z,100357.00
2018-12-20T05:35:12.939Z,100369.00
2018-12-20T05:37:43.030Z,100362.00
2018-12-20T05:40:15.322Z,100360.00
2018-12-20T05:42:47.329Z,100357.00
2018-12-20T05:45:18.627Z,100351.00
2018-12-20T05:50:40.078Z,100354.00
2018-12-20T05:53:09.168Z,100357.00
2018-12-20T05:55:38.302Z,100360.00
2018-12-20T05:58:07.821Z,100362.00
2018-12-20T06:00:37.581Z,100361.00
2018-12-20T06:03:06.740Z,100356.00
2018-12-20T06:05:35.768Z,100356.00
2018-12-20T06:08:05.312Z,100354.00
2018-12-20T06:10:34.883Z,100351.00
2018-12-20T06:13:04.013Z,100358.00
2018-12-20T06:15:33.768Z,100361.00
2018-12-20T06:18:02.966Z,100355.00
2018-12-20T06:20:32.580Z,100355.00
2018-12-20T06:23:02.203Z,100363.00
2018-12-20T06:25:31.249Z,100354.00
2018-12-20T06:28:00.286Z,100357.00
2018-12-20T06:30:29.304Z,100358.00
2018-12-20T06:33:02.344Z,100358.00
2018-12-20T06:35:31.946Z,100359.00
2018-12-20T06:38:01.526Z,100357.00
2018-12-20T06:40:30.662Z,100361.00
2018-12-20T06:42:59.784Z,100367.00
2018-12-20T06:45:28.815Z,100372.00
2018-12-20T06:47:58.079Z,100372.00
2018-12-20T06:50:28.721Z,100362.00
2018-12-20T06:52:57.989Z,100362.00
2018-12-20T06:55:29.045Z,100361.00
2018-12-20T06:58:03.437Z,100355.00
2018-12-20T07:00:34.997Z,100358.00
2018-12-20T07:03:10.591Z,100375.00
2018-12-20T07:05:41.641Z,100371.00
2018-12-20T07:08:10.974Z,100370.00
2018-12-20T07:10:40.177Z,100366.00
2018-12-20T07:13:09.325Z,100375.00
2018-12-20T07:15:39.192Z,100366.00
2018-12-20T07:18:08.263Z,100371.00
2018-12-20T07:20:37.355Z,100367.00
2018-12-20T07:23:06.392Z,100364.00
2018-12-20T07:25:35.381Z,100359.00
2018-12-20T07:28:04.887Z,100365.00
2018-12-20T07:30:34.050Z,100365.00
2018-12-20T07:33:03.068Z,100374.00
2018-12-20T07:35:32.125Z,100371.00
2018-12-20T07:38:01.133Z,100368.00
2018-12-20T07:40:30.385Z,100371.00
2018-12-20T07:42:59.475Z,100369.00
2018-12-20T07:45:28.744Z,100360.00
2018-12-20T07:47:57.727Z,100359.00
2018-12-20T07:50:26.824Z,100361.00
2018-12-20T07:52:55.954Z,100361.00
2018-12-20T07:55:25.005Z,100365.00
2018-12-20T07:57:56.075Z,100353.00
2018-12-20T08:03:32.366Z,100358.00
2018-12-20T08:06:01.420Z,100354.00
2018-12-20T08:08:30.587Z,100370.00
2018-12-20T08:10:59.690Z,100372.00
2018-12-20T08:13:28.833Z,100369.00
2018-12-20T08:15:57.941Z,100366.00
2018-12-20T08:18:27.098Z,100369.00
2018-12-20T08:20:57.201Z,100374.00
2018-12-20T08:23:26.279Z,100381.00
2018-12-20T08:25:55.422Z,100380.00
2018-12-20T08:28:25.113Z,100385.00
2018-12-20T08:30:54.870Z,100386.00
2018-12-20T08:33:24.066Z,100379.00
2018-12-20T08:35:53.240Z,100386.00
2018-12-20T08:38:22.438Z,100387.00
2018-12-20T08:40:51.699Z,100390.00
2018-12-20T08:43:20.830Z,100394.00
2018-12-20T08:45:49.956Z,100387.00
2018-12-20T08:48:19.054Z,100385.00
2018-12-20T08:50:48.118Z,100390.00
2018-12-20T08:53:17.320Z,100394.00
2018-12-20T08:55:46.520Z,100391.00
2018-12-20T08:58:15.688Z,100394.00
2018-12-20T09:00:44.760Z,100394.00
2018-12-20T09:03:13.857Z,100389.00
2018-12-20T09:05:43.118Z,100371.00
2018-12-20T09:08:12.258Z,100394.00
2018-12-20T09:10:41.444Z,100396.00
2018-12-20T09:13:10.590Z,100391.00
2018-12-20T09:15:39.712Z,100397.00
2018-12-20T09:18:08.756Z,100398.00
2018-12-20T09:20:37.898Z,100397.00
2018-12-20T09:23:07.811Z,100396.00
2018-12-20T09:25:37.074Z,100387.00
2018-12-20T09:28:07.688Z,100386.00
2018-12-20T09:30:37.003Z,100401.00
2018-12-20T09:33:08.034Z,100403.00
2018-12-20T09:35:37.283Z,100395.00
2018-12-20T09:38:12.667Z,100394.00
2018-12-20T09:40:42.089Z,100392.00
2018-12-20T09:45:46.937Z,100393.00
2018-12-20T09:48:16.076Z,100401.00
2018-12-20T09:50:47.975Z,100392.00
2018-12-20T09:53:18.099Z,100390.00
2018-12-20T09:55:48.259Z,100396.00
2018-12-20T09:58:17.299Z,100387.00
2018-12-20T10:00:46.509Z,100388.00
2018-12-20T10:03:15.720Z,100383.00
2018-12-20T10:05:44.903Z,100384.00
2018-12-20T10:08:14.360Z,100382.00
2018-12-20T10:13:55.259Z,100381.00
2018-12-20T10:16:24.815Z,100376.00
2018-12-20T10:18:53.981Z,100376.00
2018-12-20T10:21:23.712Z,100373.00
2018-12-20T10:23:52.817Z,100375.00
2018-12-20T10:26:28.129Z,100369.00
2018-12-20T10:28:57.640Z,100374.00
2018-12-20T10:31:26.827Z,100366.00
2018-12-20T10:34:02.775Z,100376.00
2018-12-20T10:36:31.979Z,100368.00
2018-12-20T10:39:01.251Z,100364.00
2018-12-20T10:44:51.813Z,100356.00
2018-12-20T10:50:19.753Z,100349.00
2018-12-20T10:55:31.303Z,100345.00
2018-12-20T10:58:13.909Z,100342.00
2018-12-20T11:00:49.072Z,100339.00
2018-12-20T11:03:29.654Z,100340.00
2018-12-20T11:06:03.496Z,100340.00
2018-12-20T11:08:57.899Z,100335.00
2018-12-20T11:11:29.253Z,100332.00
2018-12-20T11:13:58.437Z,100326.00
2018-12-20T11:16:27.579Z,100332.00
2018-12-20T11:18:56.661Z,100334.00
2018-12-20T11:21:26.549Z,100324.00
2018-12-20T11:23:56.462Z,100321.00
2018-12-20T11:26:25.711Z,100312.00
2018-12-20T11:28:54.862Z,100322.00
2018-12-20T11:31:24.123Z,100314.00
2018-12-20T11:33:53.429Z,100309.00
2018-12-20T11:36:23.503Z,100313.00
2018-12-20T11:38:53.384Z,100310.00
2018-12-20T11:41:22.563Z,100312.00
2018-12-20T11:43:51.657Z,100303.00
2018-12-20T11:46:20.734Z,100302.00
2018-12-20T11:48:49.799Z,100305.00
2018-12-20T11:51:23.776Z,100300.00
2018-12-20T11:53:53.956Z,100295.00
2018-12-20T11:56:23.144Z,100295.00
2018-12-20T11:58:52.361Z,100291.00
2018-12-20T12:01:22.200Z,100291.00
2018-12-20T12:03:57.359Z,100286.00
2018-12-20T12:06:22.500Z,100295.00
2018-12-20T12:08:51.685Z,100290.00
2018-12-20T12:11:22.506Z,100287.00
2018-12-20T12:13:51.768Z,100288.00
2018-12-20T12:16:20.936Z,100288.00
2018-12-20T12:18:50.186Z,100288.00
2018-12-20T12:21:19.765Z,100286.00
2018-12-20T12:23:49.626Z,100286.00
2018-12-20T12:26:28.879Z,100281.00
2018-12-20T12:31:36.156Z,100281.00
2018-12-20T12:34:07.305Z,100290.00
2018-12-20T12:36:38.386Z,100274.00
2018-12-20T12:39:10.011Z,100283.00
2018-12-20T12:44:41.808Z,100281.00
2018-12-20T12:47:11.051Z,100272.00
2018-12-20T12:49:41.136Z,100274.00
2018-12-20T12:52:10.488Z,100275.00
2018-12-20T12:54:39.936Z,100278.00
2018-12-20T12:57:09.610Z,100270.00
2018-12-20T12:59:38.728Z,100272.00
2018-12-20T13:02:08.277Z,100265.00
2018-12-20T13:04:37.891Z,100267.00
2018-12-20T13:07:07.267Z,100274.00
2018-12-20T13:09:37.661Z,100273.00
2018-12-20T13:12:09.533Z,100277.00
2018-12-20T13:14:41.916Z,100279.00
2018-12-20T13:17:12.624Z,100287.00
2018-12-20T13:19:42.489Z,100273.00
2018-12-20T13:22:12.733Z,100281.00
2018-12-20T13:24:45.198Z,100280.00
2018-12-20T13:27:15.212Z,100279.00
2018-12-20T13:29:44.674Z,100277.00
2018-12-20T13:32:17.887Z,100276.00
2018-12-20T13:34:47.253Z,100274.00
2018-12-20T13:40:09.476Z,100277.00
2018-12-20T13:42:39.591Z,100270.00
2018-12-20T13:45:08.823Z,100270.00
2018-12-20T13:48:44.128Z,100271.00
2018-12-20T13:54:23.348Z,100274.00
2018-12-20T13:56:53.261Z,100270.00
2018-12-20T13:59:22.294Z,100278.00
2018-12-20T14:01:51.932Z,100279.00
2018-12-20T14:04:21.055Z,100275.00
2018-12-20T14:06:50.302Z,100275.00
2018-12-20T14:09:19.947Z,100275.00
2018-12-20T14:11:50.556Z,100278.00
2018-12-20T14:14:22.237Z,100273.00
2018-12-20T14:16:53.073Z,100280.00
2018-12-20T14:19:22.422Z,100275.00
2018-12-20T14:21:54.954Z,100281.00
2018-12-20T14:24:25.347Z,100284.00
2018-12-20T14:26:56.355Z,100295.00
2018-12-20T14:29:25.497Z,100249.00
2018-12-20T14:31:55.803Z,100288.00
2018-12-20T14:34:25.755Z,100288.00
2018-12-20T14:40:24.455Z,100292.00
2018-12-20T14:42:54.097Z,100290.00
2018-12-20T14:45:23.722Z,100285.00
2018-12-20T14:47:53.328Z,100288.00
2018-12-20T14:50:23.544Z,100286.00
2018-12-20T14:52:54.433Z,100288.00
2018-12-20T14:56:02.722Z,100281.00
2018-12-20T14:58:32.116Z,100287.00
2018-12-20T15:01:03.395Z,100274.00
2018-12-20T15:03:33.501Z,100282.00
2018-12-20T15:06:04.163Z,100289.00
2018-12-20T15:08:33.468Z,100304.00
2018-12-20T15:11:02.801Z,100300.00
2018-12-20T15:13:32.115Z,100294.00
2018-12-20T15:16:01.598Z,100297.00
2018-12-20T15:18:31.001Z,100301.00
2018-12-20T15:21:00.561Z,100299.00
2018-12-20T15:23:33.590Z,100298.00
2018-12-20T15:26:03.546Z,100308.00
2018-12-20T15:31:33.009Z,100295.00
2018-12-20T15:34:02.496Z,100309.00
2018-12-20T15:36:31.763Z,100307.00
2018-12-20T15:39:01.038Z,100302.00
2018-12-20T15:41:30.967Z,100303.00
2018-12-20T15:44:01.345Z,100299.00
2018-12-20T16:09:40.922Z,100306.00
2018-12-20T16:14:50.492Z,100305.00
2018-12-20T16:36:22.656Z,100296.00
2018-12-20T16:42:01.489Z,100294.00
2018-12-20T16:44:30.564Z,100295.00
2018-12-20T16:47:00.696Z,100307.00
2018-12-20T16:49:30.111Z,100302.00
2018-12-20T16:52:38.406Z,100310.00
2018-12-20T16:55:13.261Z,100302.00
2018-12-20T17:00:49.042Z,100298.00
2018-12-20T17:03:20.164Z,100291.00
2018-12-20T17:05:50.507Z,100295.00
2018-12-20T17:11:29.994Z,100293.00
2018-12-20T17:13:59.186Z,100292.00
2018-12-20T17:16:28.330Z,100295.00
2018-12-20T17:18:58.408Z,100298.00
2018-12-20T17:21:27.631Z,100288.00
2018-12-20T17:23:57.354Z,100292.00
2018-12-20T17:26:26.565Z,100292.00
2018-12-20T17:28:56.465Z,100286.00
2018-12-20T17:31:25.793Z,100286.00
2018-12-20T17:33:55.098Z,100291.00
2018-12-20T17:36:25.008Z,100283.00
2018-12-20T17:38:54.883Z,100284.00
2018-12-20T17:41:24.304Z,100288.00
2018-12-20T17:43:53.383Z,100283.00
2018-12-20T17:46:22.862Z,100322.00
2018-12-20T17:48:52.088Z,100285.00
2018-12-20T17:51:21.728Z,100283.00
2018-12-20T17:53:51.070Z,100289.00
2018-12-20T17:56:20.095Z,100285.00
2018-12-20T17:58:49.179Z,100284.00
2018-12-20T18:01:18.357Z,100285.00
2018-12-20T18:03:47.567Z,100277.00
2018-12-20T18:06:16.782Z,100285.00
2018-12-20T18:08:47.027Z,100279.00
2018-12-20T18:11:16.097Z,100279.00
2018-12-20T18:13:46.837Z,100275.00
2018-12-20T18:16:16.188Z,100281.00
2018-12-20T18:18:45.357Z,100273.00
2018-12-20T18:21:14.957Z,100275.00
2018-12-20T18:23:44.265Z,100285.00
2018-12-20T18:26:13.367Z,100280.00
2018-12-20T18:28:43.472Z,100280.00
2018-12-20T18:31:12.739Z,100279.00
2018-12-20T18:33:42.039Z,100282.00
2018-12-20T18:36:11.585Z,100282.00
2018-12-20T18:38:40.975Z,100278.00
2018-12-20T18:41:11.281Z,100283.00
2018-12-20T18:43:40.428Z,100278.00
2018-12-20T18:46:09.796Z,100273.00
2018-12-20T18:48:39.143Z,100281.00
2018-12-20T18:51:08.427Z,100280.00
2018-12-20T18:53:37.879Z,100277.00
2018-12-20T18:56:08.101Z,100278.00
2018-12-20T18:58:37.439Z,100265.00
2018-12-20T19:01:07.256Z,100270.00
2018-12-20T19:03:36.800Z,100269.00
2018-12-20T19:06:06.876Z,100268.00
2018-12-20T19:08:36.640Z,100270.00
2018-12-20T19:11:06.255Z,100265.00
2018-12-20T19:13:36.027Z,100264.00
2018-12-20T19:16:05.437Z,100260.00
2018-12-20T19:18:34.765Z,100255.00
2018-12-20T19:21:03.905Z,100257.00
2018-12-20T19:23:33.076Z,100257.00
2018-12-20T19:26:02.302Z,100254.00
2018-12-20T19:28:31.800Z,100260.00
2018-12-20T19:31:00.874Z,100256.00
2018-12-20T19:33:29.998Z,100260.00
2018-12-20T19:35:59.143Z,100252.00
2018-12-20T19:38:28.251Z,100246.00
2018-12-20T19:40:57.419Z,100256.00
2018-12-20T19:43:26.581Z,100247.00
2018-12-20T19:45:55.639Z,100250.00
2018-12-20T19:48:24.743Z,100263.00
2018-12-20T19:50:54.162Z,100259.00
2018-12-20T19:53:23.287Z,100248.00
2018-12-20T19:55:53.177Z,100257.00
2018-12-20T19:58:22.573Z,100249.00
2018-12-20T20:00:52.586Z,100255.00
2018-12-20T20:03:21.836Z,100249.00
2018-12-20T20:05:50.958Z,100240.00
2018-12-20T20:08:20.642Z,100244.00
2018-12-20T20:10:50.079Z,100249.00
2018-12-20T20:13:19.638Z,100242.00
2018-12-20T20:15:49.325Z,100238.00
2018-12-20T20:18:18.922Z,100242.00
2018-12-20T20:20:49.432Z,100230.00
2018-12-20T20:23:19.265Z,100233.00
2018-12-20T20:25:48.746Z,100235.00
2018-12-20T20:28:18.976Z,100238.00
2018-12-20T20:30:48.810Z,100231.00
2018-12-20T20:33:18.048Z,100227.00
2018-12-20T20:35:47.351Z,100217.00
2018-12-20T20:38:16.653Z,100225.00
2018-12-20T20:40:46.345Z,100226.00
2018-12-20T20:43:15.585Z,100216.00
2018-12-20T20:45:45.149Z,100213.00
2018-12-20T20:48:14.317Z,100222.00
2018-12-20T20:50:43.423Z,100227.00
2018-12-20T20:53:12.731Z,100228.00
2018-12-20T20:55:41.933Z,100224.00
2018-12-20T20:58:11.125Z,100225.00
2018-12-20T21:00:40.422Z,100217.00
2018-12-20T21:03:10.045Z,100221.00
2018-12-20T21:05:39.163Z,100221.00
2018-12-20T21:08:08.379Z,100219.00
2018-12-20T21:10:37.559Z,100214.00
2018-12-20T21:13:06.629Z,100211.00
2018-12-20T21:15:35.817Z,100210.00
2018-12-20T21:18:05.111Z,100209.00
2018-12-20T21:20:36.435Z,100204.00
2018-12-20T21:23:05.892Z,100208.00
2018-12-20T21:25:36.450Z,100203.00
2018-12-20T21:28:06.908Z,100204.00
2018-12-20T21:30:36.792Z,100205.00
2018-12-20T21:33:06.277Z,100205.00
2018-12-20T21:35:35.661Z,100206.00
2018-12-20T21:38:05.087Z,100201.00
2018-12-20T21:40:34.462Z,100207.00
2018-12-20T21:43:05.342Z,100199.00
2018-12-20T21:45:35.116Z,100201.00
2018-12-20T21:48:04.657Z,100196.00
2018-12-20T21:50:38.880Z,100203.00
2018-12-20T21:53:06.542Z,100187.00
2018-12-20T21:55:36.197Z,100194.00
2018-12-20T21:58:05.984Z,100195.00
2018-12-20T22:00:35.634Z,100193.00
2018-12-20T22:03:05.856Z,100198.00
2018-12-20T22:05:35.230Z,100200.00
2018-12-20T22:08:04.612Z,100201.00
2018-12-20T22:10:38.743Z,100196.00
2018-12-20T22:13:08.273Z,100206.00
2018-12-20T22:15:37.649Z,100205.00
2018-12-20T22:18:07.139Z,100199.00
2018-12-20T22:20:36.955Z,100207.00
2018-12-20T22:23:07.722Z,100198.00
2018-12-20T22:25:37.163Z,100208.00
2018-12-20T22:28:06.589Z,100191.00
2018-12-20T22:30:35.748Z,100200.00
2018-12-20T22:33:05.957Z,100200.00
2018-12-20T22:35:35.176Z,100197.00
2018-12-20T22:38:04.398Z,100194.00
2018-12-20T22:40:34.317Z,100195.00
2018-12-20T22:43:03.713Z,100189.00
2018-12-20T22:45:32.920Z,100197.00
2018-12-20T22:48:02.088Z,100195.00
2018-12-20T22:50:31.183Z,100187.00
2018-12-20T22:53:00.270Z,100187.00
2018-12-20T22:55:29.536Z,100182.00
2018-12-20T22:57:58.670Z,100178.00
2018-12-20T23:00:28.350Z,100172.00
2018-12-20T23:02:57.420Z,100176.00
2018-12-20T23:05:26.505Z,100175.00
2018-12-20T23:07:55.597Z,100160.00
2018-12-20T23:10:24.904Z,100169.00
2018-12-20T23:12:54.648Z,100173.00
2018-12-20T23:15:23.859Z,100169.00
2018-12-20T23:17:53.104Z,100170.00
2018-12-20T23:20:22.259Z,100167.00
2018-12-20T23:22:51.635Z,100168.00
2018-12-20T23:25:20.859Z,100159.00
2018-12-20T23:27:50.115Z,100154.00
2018-12-20T23:30:20.080Z,100160.00
2018-12-20T23:32:49.672Z,100152.00
2018-12-20T23:35:19.138Z,100154.00
2018-12-20T23:37:48.438Z,100150.00
2018-12-20T23:40:17.958Z,100156.00
2018-12-20T23:42:47.211Z,100153.00
2018-12-20T23:45:18.264Z,100139.00
2018-12-20T23:47:47.532Z,100141.00
2018-12-20T23:50:16.679Z,100147.00
2018-12-20T23:52:46.354Z,100100.00
2018-12-20T23:55:15.545Z,100131.00
2018-12-20T23:57:44.664Z,100133.00
